Time;durP1;ratioP1;P1;durP2;ratioP2;P2;SDS_P1;SDS_P2;PMS_P1;PMS_P2;Temp;Humidity;BMP_temperature;BMP_pressure;BME280_temperature;BME280_humidity;BME280_pressure;Samples;Min_cycle;Max_cycle;Signal;HPM_P1;HPM_P2
2022/04/30 00:00:02;;;;;;;7.50;5.95;;;;;;;10.58;49.43;102129.28;686918;28;1608;-85
2022/04/30 00:00:33;;;;;;;8.25;5.80;;;;;;;10.64;49.48;102129.56;690272;28;1175;-85
2022/04/30 00:00:57;;;;;;;7.83;5.60;;;;;;;10.70;49.54;102139.47;692447;28;1575;-86
2022/04/30 00:01:19;;;;;;;9.05;6.00;;;;;;;10.61;49.28;102120.69;690997;28;1005;-85
2022/04/30 00:01:39;;;;;;;9.25;6.03;;;;;;;10.67;49.64;102127.13;692923;28;1381;-85
2022/04/30 00:02:00;;;;;;;10.95;6.20;;;;;;;10.59;49.44;102123.25;688647;28;1678;-85
2022/04/30 00:02:20;;;;;;;10.93;6.07;;;;;;;10.65;49.43;102136.63;688519;28;1165;-86
2022/04/30 00:02:41;;;;;;;11.98;6.13;;;;;;;10.62;49.50;102120.78;693976;28;754;-86
2022/04/30 00:03:01;;;;;;;9.18;6.05;;;;;;;10.63;49.30;102125.19;691587;28;1975;-85
2022/04/30 00:03:24;;;;;;;9.57;6.20;;;;;;;10.62;49.64;102125.13;691148;28;1404;-86
2022/04/30 00:03:46;;;;;;;8.70;6.28;;;;;;;10.67;49.51;102134.97;688727;28;1876;-85
2022/04/30 00:04:07;;;;;;;8.68;6.35;;;;;;;10.63;49.50;102132.13;688280;28;1332;-86
2022/04/30 00:04:27;;;;;;;7.85;5.93;;;;;;;10.68;49.67;102141.97;691270;28;805;-85
2022/04/30 00:04:48;;;;;;;6.67;5.60;;;;;;;10.61;49.39;102124.22;691289;28;1658;-85
2022/04/30 00:05:10;;;;;;;8.55;5.80;;;;;;;10.58;49.63;102129.28;693934;28;1070;-85
2022/04/30 00:05:32;;;;;;;8.55;5.93;;;;;;;10.51;49.77;102117.63;694022;28;783;-85
2022/04/30 00:05:56;;;;;;;9.18;5.85;;;;;;;10.52;49.81;102123.75;687335;28;1592;-85
2022/04/30 00:06:16;;;;;;;10.73;5.70;;;;;;;10.53;49.54;102125.56;688330;28;1267;-84
2022/04/30 00:06:37;;;;;;;10.32;5.90;;;;;;;10.57;49.89;102127.47;688432;28;1190;-85
2022/04/30 00:06:59;;;;;;;10.48;5.75;;;;;;;10.63;49.18;102134.75;691079;28;1243;-85
2022/04/30 00:07:20;;;;;;;8.88;5.57;;;;;;;10.54;49.36;102119.50;687917;28;1292;-85
2022/04/30 00:07:41;;;;;;;8.23;5.30;;;;;;;10.53;49.71;102130.78;691132;28;1059;-85
2022/04/30 00:08:04;;;;;;;7.68;5.70;;;;;;;10.59;49.80;102136.31;690951;28;1055;-85
2022/04/30 00:08:25;;;;;;;7.05;5.60;;;;;;;10.51;49.77;102121.97;693998;28;870;-86
2022/04/30 00:08:46;;;;;;;8.70;5.72;;;;;;;10.49;49.88;102127.13;688525;28;1352;-85
2022/04/30 00:09:07;;;;;;;8.48;5.78;;;;;;;10.45;49.66;102124.28;695213;28;1729;-85
2022/04/30 00:09:28;;;;;;;8.98;5.80;;;;;;;10.44;49.88;102119.88;693201;28;1211;-85
2022/04/30 00:09:49;;;;;;;7.65;5.93;;;;;;;10.45;49.96;102124.28;691045;28;1350;-84
2022/04/30 00:10:09;;;;;;;7.67;5.80;;;;;;;10.51;49.87;102132.41;688331;28;1088;-85
2022/04/30 00:10:32;;;;;;;8.30;5.83;;;;;;;10.40;50.10;102130.13;691156;28;1248;-86
2022/04/30 00:10:53;;;;;;;8.05;5.75;;;;;;;10.44;49.84;102130.31;691176;28;1237;-84
2022/04/30 00:11:14;;;;;;;7.72;5.57;;;;;;;10.46;50.04;102139.09;690938;28;1246;-85
2022/04/30 00:11:34;;;;;;;7.00;5.50;;;;;;;10.33;50.17;102114.97;688436;28;1335;-84
2022/04/30 00:11:55;;;;;;;7.78;5.80;;;;;;;10.38;49.81;102121.34;691147;28;1286;-85
2022/04/30 00:12:16;;;;;;;7.87;5.80;;;;;;;10.41;49.95;102136.28;691037;28;1030;-85
2022/04/30 00:12:37;;;;;;;7.78;5.78;;;;;;;10.33;49.94;102122.81;688536;28;788;-85
2022/04/30 00:12:57;;;;;;;7.47;5.57;;;;;;;10.42;50.27;102140.66;691142;28;1033;-85
2022/04/30 00:13:38;;;;;;;8.47;5.80;;;;;;;10.42;50.19;102138.06;691149;28;1265;-85
2022/04/30 00:13:58;;;;;;;8.43;5.85;;;;;;;10.35;49.93;102131.66;690822;28;1083;-85
2022/04/30 00:14:19;;;;;;;7.32;5.55;;;;;;;10.42;49.93;102148.50;685816;28;1365;-84
2022/04/30 00:14:41;;;;;;;6.68;5.40;;;;;;;10.32;50.15;102136.69;683114;29;1059;-85
2022/04/30 00:15:01;;;;;;;6.55;5.45;;;;;;;10.29;50.29;102123.50;688337;28;1264;-84
2022/04/30 00:15:22;;;;;;;7.35;5.78;;;;;;;10.30;50.31;102127.88;688519;28;869;-85
2022/04/30 00:15:44;;;;;;;8.93;5.72;;;;;;;10.35;50.16;102141.16;688420;28;1189;-85
2022/04/30 00:16:04;;;;;;;8.40;5.43;;;;;;;10.29;50.30;102139.16;688416;28;1310;-85
2022/04/30 00:16:25;;;;;;;10.60;5.60;;;;;;;10.33;50.50;102138.47;691894;28;1232;-85
2022/04/30 00:16:46;;;;;;;9.20;5.63;;;;;;;10.21;50.51;102119.56;690760;28;1127;-85
2022/04/30 00:17:08;;;;;;;10.93;5.75;;;;;;;10.25;50.41;102124.13;696585;28;1095;-85
2022/04/30 00:17:28;;;;;;;8.65;5.57;;;;;;;10.24;50.29;102127.56;691128;28;1293;-85
2022/04/30 00:17:51;;;;;;;7.93;5.43;;;;;;;10.31;50.65;102139.25;693812;28;1579;-85
2022/04/30 00:18:11;;;;;;;7.90;5.50;;;;;;;10.22;50.43;102129.19;691214;28;1323;-85
2022/04/30 00:18:32;;;;;;;10.37;5.90;;;;;;;10.23;50.69;102131.91;685752;28;1204;-85
2022/04/30 00:18:52;;;;;;;13.50;6.20;;;;;;;10.28;50.46;102145.19;691190;28;1255;-84
2022/04/30 00:19:13;;;;;;;14.10;6.40;;;;;;;10.23;50.60;102131.00;694204;28;1602;-84
2022/04/30 00:19:34;;;;;;;11.60;6.10;;;;;;;10.25;50.49;102143.31;693658;28;1237;-84
2022/04/30 00:19:55;;;;;;;9.52;5.85;;;;;;;10.14;50.77;102128.81;690856;28;1226;-84
2022/04/30 00:20:16;;;;;;;10.90;6.00;;;;;;;10.21;50.61;102138.72;693857;28;1122;-85
2022/04/30 00:20:38;;;;;;;9.40;6.00;;;;;;;10.17;50.80;102133.25;691090;28;1195;-85
2022/04/30 00:20:59;;;;;;;9.48;6.47;;;;;;;10.17;50.72;102138.47;691125;28;1066;-85
2022/04/30 00:21:19;;;;;;;9.43;6.60;;;;;;;10.20;50.77;102141.25;688369;28;1080;-85
2022/04/30 00:21:41;;;;;;;8.65;6.18;;;;;;;10.13;50.73;102130.50;688515;28;857;-85
2022/04/30 00:22:03;;;;;;;8.35;5.88;;;;;;;10.18;50.98;102138.56;688311;28;1363;-84
2022/04/30 00:22:24;;;;;;;7.03;5.43;;;;;;;10.08;50.95;102126.75;688482;28;832;-85
2022/04/30 00:22:44;;;;;;;7.63;5.50;;;;;;;10.08;50.87;102142.41;688468;28;733;-85
2022/04/30 00:23:05;;;;;;;7.97;5.55;;;;;;;10.12;51.21;102139.16;690150;28;1911;-85
2022/04/30 00:23:27;;;;;;;8.38;5.72;;;;;;;10.10;51.02;102139.88;688424;28;1322;-85
2022/04/30 00:23:48;;;;;;;7.85;5.70;;;;;;;10.01;51.13;102129.84;692870;28;1645;-84
2022/04/30 00:24:08;;;;;;;9.40;5.70;;;;;;;10.00;51.10;102128.06;691125;28;1093;-85
2022/04/30 00:24:29;;;;;;;10.00;5.80;;;;;;;10.04;51.08;102140.47;693795;28;1264;-85
2022/04/30 00:24:50;;;;;;;10.40;6.10;;;;;;;10.06;51.23;102151.88;693770;28;1173;-85
2022/04/30 00:25:11;;;;;;;9.32;6.20;;;;;;;9.99;51.33;102137.63;693740;28;1020;-85
2022/04/30 00:25:32;;;;;;;8.23;5.93;;;;;;;9.91;51.03;102127.59;693413;28;1172;-85
2022/04/30 00:25:54;;;;;;;9.55;6.22;;;;;;;9.87;51.34;102127.44;688552;28;1146;-84
2022/04/30 00:26:15;;;;;;;10.18;6.05;;;;;;;9.95;51.24;102139.97;688106;28;1067;-84
2022/04/30 00:26:35;;;;;;;9.90;6.03;;;;;;;9.87;51.20;102132.66;691148;28;815;-85
2022/04/30 00:26:58;;;;;;;8.10;5.80;;;;;;;9.89;51.36;102135.31;693732;28;1176;-85
2022/04/30 00:27:20;;;;;;;7.40;5.90;;;;;;;9.85;51.43;102122.94;693759;28;1127;-85
2022/04/30 00:27:40;;;;;;;7.63;5.97;;;;;;;9.82;51.58;102127.97;688493;28;1212;-85
2022/04/30 00:28:01;;;;;;;8.32;6.10;;;;;;;9.85;51.34;102139.47;692897;28;1713;-85
2022/04/30 00:28:25;;;;;;;8.32;6.13;;;;;;;9.85;51.24;102138.59;693869;28;1410;-85
2022/04/30 00:28:46;;;;;;;8.10;6.15;;;;;;;9.80;51.39;102130.53;693772;28;840;-85
2022/04/30 00:29:07;;;;;;;9.32;6.30;;;;;;;9.77;51.75;102135.56;693783;28;1130;-85
2022/04/30 00:29:29;;;;;;;12.05;6.63;;;;;;;9.81;51.63;102147.06;690923;28;1364;-85
2022/04/30 00:29:49;;;;;;;13.15;6.95;;;;;;;9.69;51.83;102131.66;690624;28;1368;-84
2022/04/30 00:30:11;;;;;;;11.57;6.50;;;;;;;9.67;51.80;102135.91;690954;28;1048;-84
2022/04/30 00:30:31;;;;;;;9.27;6.20;;;;;;;9.69;51.99;102135.16;696557;28;792;-85
2022/04/30 00:30:53;;;;;;;9.05;6.05;;;;;;;9.68;51.79;102130.78;696538;28;1210;-85
2022/04/30 00:31:13;;;;;;;9.35;6.20;;;;;;;9.71;51.61;102143.97;693764;28;1091;-84
2022/04/30 00:31:35;;;;;;;8.52;5.90;;;;;;;9.69;51.72;102131.66;691092;28;1308;-85
2022/04/30 00:31:57;;;;;;;8.05;5.70;;;;;;;9.65;51.86;102127.09;691070;28;1077;-85
2022/04/30 00:32:18;;;;;;;9.50;5.80;;;;;;;9.57;52.06;102126.66;691203;28;1132;-85
2022/04/30 00:32:38;;;;;;;9.35;5.97;;;;;;;9.55;52.29;102117.88;691049;28;1273;-85
2022/04/30 00:32:59;;;;;;;9.53;5.80;;;;;;;9.54;52.30;102127.44;690903;28;1193;-85
2022/04/30 00:33:20;;;;;;;9.00;5.80;;;;;;;9.56;51.82;102131.00;691038;28;1182;-85
2022/04/30 00:33:41;;;;;;;10.60;5.97;;;;;;;9.58;52.40;102128.47;693824;28;1539;-85
2022/04/30 00:34:02;;;;;;;8.90;5.90;;;;;;;9.58;52.04;102131.97;693199;28;1140;-85
2022/04/30 00:34:23;;;;;;;8.00;5.85;;;;;;;9.62;52.42;102142.56;691152;28;1219;-85
2022/04/30 00:34:44;;;;;;;8.27;6.05;;;;;;;9.48;52.15;102118.38;694221;28;1637;-83
2022/04/30 00:35:05;;;;;;;11.20;6.18;;;;;;;9.49;52.48;102123.66;693160;28;1101;-84
2022/04/30 00:35:26;;;;;;;10.88;6.00;;;;;;;9.49;52.29;102123.66;691187;28;803;-85
2022/04/30 00:35:48;;;;;;;10.25;5.70;;;;;;;9.46;52.51;102123.47;688319;28;1317;-85
2022/04/30 00:36:08;;;;;;;8.35;5.85;;;;;;;9.48;52.43;102127.09;682925;29;1044;-85
2022/04/30 00:36:29;;;;;;;8.40;5.97;;;;;;;9.45;52.65;102119.09;688450;28;866;-84
2022/04/30 00:36:50;;;;;;;8.32;5.82;;;;;;;9.41;52.39;102114.53;690830;28;1580;-84
2022/04/30 00:37:10;;;;;;;7.33;5.57;;;;;;;9.45;52.35;102124.28;690994;28;1160;-84
2022/04/30 00:37:31;;;;;;;7.28;5.22;;;;;;;9.48;52.53;102137.50;685776;28;1262;-85
2022/04/30 00:37:52;;;;;;;8.47;5.70;;;;;;;9.45;52.65;102132.13;688465;28;835;-85
2022/04/30 00:38:15;;;;;;;9.10;5.85;;;;;;;9.45;52.75;102133.03;690954;28;1191;-84
2022/04/30 00:38:36;;;;;;;10.77;6.30;;;;;;;9.42;52.71;102131.97;688339;28;1129;-84
2022/04/30 00:38:57;;;;;;;11.37;6.40;;;;;;;9.39;52.64;102127.47;688106;28;1151;-84
2022/04/30 00:39:17;;;;;;;11.30;6.57;;;;;;;9.42;52.70;102131.97;685580;28;1145;-85
2022/04/30 00:39:38;;;;;;;9.48;6.20;;;;;;;9.44;53.01;102139.06;688243;28;843;-84
2022/04/30 00:39:59;;;;;;;7.70;6.07;;;;;;;9.41;52.83;102132.78;685720;28;1069;-84
2022/04/30 00:40:19;;;;;;;8.57;6.00;;;;;;;9.35;52.76;102125.53;690972;28;1141;-84
2022/04/30 00:40:42;;;;;;;9.02;5.88;;;;;;;9.36;52.97;102131.63;693869;28;1246;-84
2022/04/30 00:41:03;;;;;;;10.15;5.63;;;;;;;9.31;53.10;102124.47;688885;28;1718;-85
2022/04/30 00:41:24;;;;;;;8.40;5.60;;;;;;;9.35;53.16;102127.22;693761;28;1022;-84
2022/04/30 00:41:46;;;;;;;9.20;6.07;;;;;;;9.33;52.96;102124.53;691061;28;1300;-85
2022/04/30 00:42:10;;;;;;;8.45;6.10;;;;;;;9.31;53.14;102114.03;694782;28;1631;-84
2022/04/30 00:42:30;;;;;;;10.40;5.97;;;;;;;9.40;52.99;102139.69;693833;28;793;-84
2022/04/30 00:42:51;;;;;;;10.00;5.77;;;;;;;9.34;52.64;102126.31;691019;28;1975;-84
2022/04/30 00:43:12;;;;;;;7.72;5.93;;;;;;;9.35;53.13;102124.63;691053;28;1091;-85
2022/04/30 00:43:46;;;;;;;7.82;6.20;;;;;;;9.34;52.83;102128.03;690981;28;1535;-85
2022/04/30 00:44:07;;;;;;;8.05;5.88;;;;;;;9.31;52.97;102129.69;696434;28;1146;-85
2022/04/30 00:44:28;;;;;;;8.40;5.93;;;;;;;9.36;53.44;102131.63;696573;28;1211;-85
2022/04/30 00:44:49;;;;;;;8.43;6.05;;;;;;;9.31;53.00;102129.69;696445;28;1306;-85
2022/04/30 00:45:10;;;;;;;10.85;6.47;;;;;;;9.27;53.23;102122.50;691116;28;1157;-85
2022/04/30 00:45:31;;;;;;;9.63;6.07;;;;;;;9.24;53.21;102124.94;690737;28;1132;-85
2022/04/30 00:45:52;;;;;;;8.75;5.85;;;;;;;9.23;53.37;102114.41;693128;28;1161;-84
2022/04/30 00:46:17;;;;;;;6.38;5.70;;;;;;;9.30;53.33;102138.31;688326;28;1183;-84
2022/04/30 00:46:38;;;;;;;8.50;5.97;;;;;;;9.30;53.22;102135.69;693869;28;775;-85
2022/04/30 00:46:58;;;;;;;8.73;5.82;;;;;;;9.25;53.33;102131.03;701912;28;1070;-85
2022/04/30 00:47:19;;;;;;;9.13;5.78;;;;;;;9.24;53.27;102132.75;693782;28;1165;-84
2022/04/30 00:47:40;;;;;;;9.60;5.63;;;;;;;9.19;53.17;102115.97;690900;28;1180;-85
2022/04/30 00:48:00;;;;;;;10.65;5.97;;;;;;;9.23;53.08;102128.34;693681;28;1267;-84
2022/04/30 00:48:21;;;;;;;12.35;5.93;;;;;;;9.24;53.29;102131.84;690367;28;1704;-84
2022/04/30 00:48:42;;;;;;;11.77;5.97;;;;;;;9.17;53.32;102114.97;690960;28;788;-84
2022/04/30 00:49:04;;;;;;;11.80;5.90;;;;;;;9.20;53.20;102117.75;698186;28;1613;-84
2022/04/30 00:49:25;;;;;;;9.68;6.07;;;;;;;9.15;53.38;102111.41;691744;28;1414;-84
2022/04/30 00:49:46;;;;;;;8.27;6.07;;;;;;;9.24;53.53;102135.34;696221;28;1264;-85
2022/04/30 00:50:07;;;;;;;9.18;6.10;;;;;;;9.16;53.27;102121.00;693523;28;1099;-85
2022/04/30 00:50:34;;;;;;;9.52;5.95;;;;;;;9.17;53.10;102125.41;688308;28;1230;-85
2022/04/30 00:50:55;;;;;;;10.63;6.10;;;;;;;9.25;53.47;102133.63;689677;28;1635;-84
2022/04/30 00:52:26;;;;;;;8.13;5.80;;;;;;;9.15;53.49;102121.81;685058;28;1130;-85
2022/04/30 00:52:48;;;;;;;8.85;6.05;;;;;;;9.19;53.34;102134.19;690929;28;1271;-86
2022/04/30 00:53:11;;;;;;;7.63;5.75;;;;;;;9.14;53.44;102127.81;690878;28;1108;-84
2022/04/30 00:53:33;;;;;;;7.88;5.70;;;;;;;9.15;53.76;102130.53;688257;28;1285;-84
2022/04/30 00:53:55;;;;;;;9.68;6.10;;;;;;;9.05;53.68;102120.41;688355;28;827;-85
2022/04/30 00:54:20;;;;;;;10.52;6.10;;;;;;;9.10;53.64;102120.66;693651;28;973;-84
2022/04/30 00:54:46;;;;;;;11.05;5.90;;;;;;;9.08;53.85;102119.69;691199;28;834;-85
2022/04/30 00:55:08;;;;;;;9.75;5.70;;;;;;;9.12;53.58;102132.97;691033;28;1012;-84
2022/04/30 00:55:31;;;;;;;6.70;5.60;;;;;;;9.07;53.54;102124.00;685585;28;1540;-84
2022/04/30 00:55:53;;;;;;;6.32;5.28;;;;;;;9.04;53.70;102122.09;685733;28;946;-84
2022/04/30 00:56:18;;;;;;;6.72;5.10;;;;;;;9.12;53.66;102137.25;690876;28;1248;-84
2022/04/30 00:56:51;;;;;;;8.02;5.30;;;;;;;9.05;53.52;102126.50;691097;28;811;-84
2022/04/30 00:57:16;;;;;;;9.95;5.55;;;;;;;9.10;53.70;102137.16;688179;28;1114;-84
2022/04/30 00:57:41;;;;;;;9.85;5.63;;;;;;;9.00;53.59;102120.16;693814;28;920;-84
2022/04/30 00:58:05;;;;;;;9.20;5.63;;;;;;;9.08;53.64;102135.31;693812;28;1522;-84
2022/04/30 00:58:29;;;;;;;9.50;5.95;;;;;;;8.95;53.97;102115.50;688418;28;1350;-85
2022/04/30 00:58:49;;;;;;;8.65;5.75;;;;;;;9.04;54.27;102134.25;688371;28;934;-84
2022/04/30 00:59:17;;;;;;;7.30;5.53;;;;;;;9.00;53.88;102127.06;693788;28;1216;-84
2022/04/30 00:59:40;;;;;;;6.20;5.35;;;;;;;9.00;54.18;102133.16;696357;28;1248;-84
2022/04/30 01:00:01;;;;;;;6.70;5.60;;;;;;;8.95;53.83;102116.38;693467;28;1184;-84
2022/04/30 01:00:22;;;;;;;6.65;5.68;;;;;;;8.97;53.80;102125.16;688432;28;831;-85
2022/04/30 01:01:00;;;;;;;6.85;5.30;;;;;;;8.95;53.93;102118.09;685596;28;1189;-84
2022/04/30 01:01:37;;;;;;;10.63;5.80;;;;;;;8.87;53.95;102115.97;686888;28;1396;-84
2022/04/30 01:02:56;;;;;;;11.23;6.30;;;;;;;8.96;54.42;102132.91;688767;28;1107;-84
2022/04/30 01:03:36;;;;;;;9.05;6.07;;;;;;;8.84;54.53;102125.31;698511;28;1290;-84
2022/04/30 01:03:59;;;;;;;7.82;5.53;;;;;;;8.92;54.34;102134.44;701648;28;1235;-84
2022/04/30 01:04:19;;;;;;;7.07;5.47;;;;;;;8.81;54.57;102109.50;695687;28;1758;-84
2022/04/30 01:04:40;;;;;;;6.97;5.40;;;;;;;8.80;54.33;102112.91;693755;28;812;-84
2022/04/30 01:05:02;;;;;;;7.40;5.60;;;;;;;8.80;54.28;102111.22;685775;28;1493;-84
2022/04/30 01:05:23;;;;;;;7.00;5.35;;;;;;;8.85;54.32;102121.88;685543;28;1247;-84
2022/04/30 01:05:44;;;;;;;6.80;5.65;;;;;;;8.82;54.23;102117.41;685211;28;1265;-84
2022/04/30 01:06:06;;;;;;;6.70;5.37;;;;;;;8.82;54.50;102116.47;685461;28;1064;-84
2022/04/30 01:06:55;;;;;;;9.25;5.60;;;;;;;8.91;54.56;102132.66;685289;28;1362;-84
2022/04/30 01:07:17;;;;;;;9.60;5.90;;;;;;;8.83;54.25;102115.72;688195;28;1252;-84
2022/04/30 01:07:39;;;;;;;9.65;5.70;;;;;;;8.83;54.41;102113.09;691148;28;824;-84
2022/04/30 01:07:59;;;;;;;9.50;5.50;;;;;;;8.85;54.40;102116.69;688198;28;1274;-83
2022/04/30 01:08:21;;;;;;;9.95;5.82;;;;;;;8.82;54.45;102111.28;685481;28;1231;-84
2022/04/30 01:08:42;;;;;;;9.43;6.28;;;;;;;8.84;54.79;102107.09;688234;28;1396;-84
2022/04/30 01:09:02;;;;;;;9.77;6.40;;;;;;;8.95;54.40;102129.41;690865;28;1193;-84
2022/04/30 01:09:25;;;;;;;10.03;5.83;;;;;;;8.93;54.72;102125.81;693722;28;1371;-84
2022/04/30 01:09:47;;;;;;;8.90;5.30;;;;;;;8.88;54.79;102111.63;690626;28;1732;-84
2022/04/30 01:10:09;;;;;;;8.73;5.47;;;;;;;8.96;54.66;102120.78;693612;28;1255;-84
2022/04/30 01:10:32;;;;;;;10.77;5.82;;;;;;;8.97;54.76;102127.78;690944;28;1224;-84
2022/04/30 01:10:54;;;;;;;11.32;5.80;;;;;;;8.89;54.68;102110.81;693671;28;1239;-84
2022/04/30 01:11:18;;;;;;;9.60;6.00;;;;;;;8.92;54.68;102113.63;688188;28;1106;-84
2022/04/30 01:11:41;;;;;;;8.00;5.97;;;;;;;9.00;54.35;102127.97;688378;28;903;-84
2022/04/30 01:12:06;;;;;;;9.13;6.10;;;;;;;8.94;54.52;102119.81;690980;28;1052;-84
2022/04/30 01:12:27;;;;;;;9.50;5.75;;;;;;;9.03;54.42;102125.53;693141;28;1560;-84
2022/04/30 01:12:48;;;;;;;10.63;5.80;;;;;;;8.94;54.01;102104.19;692906;28;1299;-84
2022/04/30 01:13:12;;;;;;;9.23;5.80;;;;;;;9.01;54.26;102126.25;685590;28;1173;-84
2022/04/30 01:13:36;;;;;;;9.18;6.18;;;;;;;9.12;54.62;102137.25;690992;28;1264;-84
2022/04/30 01:13:58;;;;;;;9.38;6.47;;;;;;;9.05;54.21;102120.41;690905;28;1248;-84
2022/04/30 01:14:19;;;;;;;9.65;6.60;;;;;;;9.01;54.62;102108.00;693681;28;1050;-84
2022/04/30 01:14:41;;;;;;;8.65;6.30;;;;;;;9.13;54.38;102134.75;682964;28;1228;-84
2022/04/30 01:15:06;;;;;;;8.52;5.93;;;;;;;9.07;54.50;102118.78;685447;28;1078;-84
2022/04/30 01:15:26;;;;;;;9.02;6.20;;;;;;;9.14;54.12;102122.59;690896;28;1500;-85
2022/04/30 01:15:47;;;;;;;8.53;6.30;;;;;;;9.14;53.94;102122.59;692923;28;1673;-84
2022/04/30 01:16:08;;;;;;;8.82;6.68;;;;;;;9.11;54.13;102120.75;690665;28;1269;-85
2022/04/30 01:16:29;;;;;;;8.63;6.05;;;;;;;9.10;54.05;102108.53;691098;28;803;-84
2022/04/30 01:16:50;;;;;;;8.80;6.00;;;;;;;9.07;53.96;102112.69;690850;28;1344;-84
2022/04/30 01:17:11;;;;;;;8.65;6.10;;;;;;;9.07;53.93;102113.56;690987;28;1113;-85
2022/04/30 01:17:32;;;;;;;10.63;6.45;;;;;;;9.17;54.51;102123.69;690971;28;1142;-84
2022/04/30 01:17:52;;;;;;;11.77;6.13;;;;;;;9.05;54.50;102108.25;688292;28;1253;-84
2022/04/30 01:18:13;;;;;;;10.75;5.70;;;;;;;9.13;53.88;102118.22;692685;28;1268;-84
2022/04/30 01:18:35;;;;;;;9.13;5.70;;;;;;;9.17;54.05;102125.41;696446;28;1079;-84
2022/04/30 01:18:56;;;;;;;10.55;6.18;;;;;;;9.16;54.35;102123.63;688005;28;1619;-84
2022/04/30 01:19:19;;;;;;;11.60;6.40;;;;;;;9.04;53.95;102109.06;690928;28;1429;-84
2022/04/30 01:19:43;;;;;;;12.05;5.82;;;;;;;9.14;54.33;102131.34;696168;28;1213;-84
2022/04/30 01:20:04;;;;;;;11.95;5.90;;;;;;;9.00;54.13;102107.13;695807;28;1281;-84
2022/04/30 01:20:27;;;;;;;11.45;6.00;;;;;;;9.02;54.49;102110.72;685512;28;1419;-84
2022/04/30 01:20:51;;;;;;;10.40;6.13;;;;;;;9.01;54.09;102113.22;690866;28;1239;-83
2022/04/30 01:21:13;;;;;;;8.35;6.00;;;;;;;8.96;54.27;102102.56;690850;28;1074;-84
2022/04/30 01:21:35;;;;;;;7.70;5.88;;;;;;;9.00;54.56;102112.34;691000;28;1225;-84
2022/04/30 01:21:59;;;;;;;8.32;5.70;;;;;;;8.94;54.85;102111.06;688276;28;1383;-85
2022/04/30 01:22:33;;;;;;;7.22;5.35;;;;;;;8.86;54.45;102101.13;693591;28;1367;-84
2022/04/30 01:22:54;;;;;;;9.73;5.60;;;;;;;8.97;54.21;102126.91;693577;28;2001;-84
2022/04/30 01:23:16;;;;;;;12.20;5.90;;;;;;;8.90;54.33;102117.81;693646;28;1059;-84
2022/04/30 01:23:40;;;;;;;11.13;5.72;;;;;;;8.88;54.53;102115.16;690938;28;1371;-84
2022/04/30 01:24:01;;;;;;;9.30;5.90;;;;;;;8.85;54.42;102109.75;688090;28;906;-85
2022/04/30 01:24:24;;;;;;;8.07;6.13;;;;;;;8.79;54.41;102111.13;688335;28;957;-84
2022/04/30 01:24:46;;;;;;;8.70;5.95;;;;;;;8.84;54.24;102120.09;690985;28;1130;-84
2022/04/30 01:25:08;;;;;;;7.93;5.97;;;;;;;8.71;55.06;102098.56;690570;28;1275;-84
2022/04/30 01:25:31;;;;;;;7.53;5.93;;;;;;;8.70;54.94;102103.66;688431;28;1095;-84
2022/04/30 01:25:53;;;;;;;6.97;5.85;;;;;;;8.76;54.77;102120.56;685485;28;1545;-84
2022/04/30 01:26:14;;;;;;;7.95;5.90;;;;;;;8.71;54.92;102115.88;689956;28;1582;-84
2022/04/30 01:26:36;;;;;;;9.88;6.00;;;;;;;8.73;55.09;102119.47;690994;28;1122;-84
2022/04/30 01:26:59;;;;;;;10.43;6.03;;;;;;;8.72;54.90;102128.97;690890;28;1159;-84
2022/04/30 01:27:22;;;;;;;10.10;5.85;;;;;;;8.61;55.30;102102.31;688101;28;1001;-84
2022/04/30 01:27:43;;;;;;;8.88;5.72;;;;;;;8.56;55.65;102097.66;688289;28;1116;-84
2022/04/30 01:28:05;;;;;;;8.52;5.55;;;;;;;8.58;55.19;102101.22;690181;28;1707;-84
2022/04/30 01:28:27;;;;;;;7.63;5.18;;;;;;;8.58;55.47;102106.44;692968;28;1245;-84
2022/04/30 01:28:48;;;;;;;9.05;5.50;;;;;;;8.62;55.40;102116.25;696299;28;1681;-87
2022/04/30 01:29:09;;;;;;;10.27;6.00;;;;;;;8.52;55.16;102103.50;693545;28;1152;-87
2022/04/30 01:29:31;;;;;;;10.43;6.50;;;;;;;8.52;55.16;102104.38;688190;28;854;-86
2022/04/30 01:29:51;;;;;;;9.82;6.28;;;;;;;8.56;55.36;102111.56;688187;28;1188;-83
2022/04/30 01:30:13;;;;;;;9.15;6.20;;;;;;;8.45;55.65;102097.94;690774;28;1181;-85
2022/04/30 01:30:33;;;;;;;7.55;5.60;;;;;;;8.55;55.47;102114.97;682937;28;1267;-84
2022/04/30 01:30:54;;;;;;;7.40;5.57;;;;;;;8.53;55.43;102113.09;685441;28;1038;-84
2022/04/30 01:37:22;;;;;;;7.13;5.30;;;;;;;8.23;56.11;102119.16;693625;28;947;-85
2022/04/30 01:37:43;;;;;;;6.82;5.10;;;;;;;8.15;55.73;102104.81;685633;28;948;-84
2022/04/30 01:38:15;;;;;;;7.80;5.20;;;;;;;8.11;56.37;102098.53;690734;28;1137;-84
2022/04/30 01:38:58;;;;;;;9.15;5.70;;;;;;;8.19;56.49;102112.91;693735;28;680;-84
2022/04/30 01:39:31;;;;;;;9.35;6.15;;;;;;;8.08;56.12;102099.25;690824;28;1232;-84
2022/04/30 01:39:59;;;;;;;10.00;6.30;;;;;;;8.02;56.29;102083.28;685482;28;1162;-84
2022/04/30 01:40:20;;;;;;;10.60;6.00;;;;;;;8.10;56.39;102104.53;688196;28;1367;-84
2022/04/30 01:40:41;;;;;;;9.05;5.72;;;;;;;8.08;56.58;102104.47;690950;28;1335;-84
2022/04/30 01:41:01;;;;;;;10.40;6.00;;;;;;;8.11;56.55;102111.53;690789;28;1150;-83
2022/04/30 01:41:22;;;;;;;9.73;6.27;;;;;;;8.12;56.54;102107.25;690997;28;987;-84
2022/04/30 01:41:43;;;;;;;10.10;6.07;;;;;;;8.08;56.34;102104.47;688212;28;1278;-84
2022/04/30 01:42:11;;;;;;;9.90;6.07;;;;;;;8.03;56.48;102103.28;690720;28;1029;-84
2022/04/30 01:42:37;;;;;;;10.15;6.25;;;;;;;8.07;56.48;102104.38;688230;28;993;-87
2022/04/30 01:43:00;;;;;;;8.88;5.97;;;;;;;8.06;56.52;102099.97;690665;28;1968;-86
2022/04/30 01:43:22;;;;;;;8.23;5.70;;;;;;;7.99;56.73;102097.81;690942;28;1151;-86
2022/04/30 01:43:43;;;;;;;9.07;5.63;;;;;;;8.08;56.51;102108.75;690932;28;1366;-87
2022/04/30 01:44:04;;;;;;;10.50;5.78;;;;;;;8.07;56.84;102106.97;691598;28;1773;-87
2022/04/30 01:44:25;;;;;;;10.05;5.80;;;;;;;8.00;56.68;102097.00;693456;28;1317;-87
2022/04/30 01:44:46;;;;;;;9.27;5.80;;;;;;;8.01;56.85;102098.78;695864;28;1369;-87
2022/04/30 01:45:08;;;;;;;8.25;6.00;;;;;;;8.06;56.80;102112.97;691537;28;1571;-87
2022/04/30 01:45:29;;;;;;;10.85;6.05;;;;;;;8.07;56.58;102112.16;691004;28;1458;-86
2022/04/30 01:45:50;;;;;;;9.88;5.75;;;;;;;8.00;56.56;102094.41;696498;28;885;-87
2022/04/30 01:46:12;;;;;;;9.45;5.50;;;;;;;8.03;56.97;102110.16;696283;28;980;-87
2022/04/30 01:46:34;;;;;;;6.43;5.20;;;;;;;7.99;56.68;102093.50;693520;28;1179;-87
2022/04/30 01:46:55;;;;;;;9.20;5.50;;;;;;;7.95;56.99;102089.84;690909;28;1199;-87
2022/04/30 01:47:28;;;;;;;9.80;6.20;;;;;;;8.03;57.00;102100.69;690913;28;1230;-87
2022/04/30 01:47:48;;;;;;;9.02;5.97;;;;;;;7.98;56.98;102091.69;693575;28;1255;-87
2022/04/30 01:48:13;;;;;;;10.07;6.00;;;;;;;8.00;57.00;102099.59;696313;28;1201;-87
2022/04/30 01:48:36;;;;;;;11.20;6.32;;;;;;;7.94;57.06;102092.34;693621;28;1208;-87
2022/04/30 01:48:56;;;;;;;9.60;6.10;;;;;;;7.99;57.25;102100.41;693515;28;1189;-87
2022/04/30 01:49:17;;;;;;;9.30;6.03;;;;;;;7.99;57.19;102097.81;693541;28;1136;-87
2022/04/30 01:49:38;;;;;;;8.25;6.00;;;;;;;8.01;56.95;102104.00;696112;28;1211;-86
2022/04/30 01:49:59;;;;;;;8.50;6.10;;;;;;;7.92;57.56;102092.25;690119;28;1224;-87
2022/04/30 01:50:19;;;;;;;8.02;5.78;;;;;;;7.95;57.00;102100.25;696278;28;1067;-86
2022/04/30 01:50:41;;;;;;;8.55;5.70;;;;;;;7.94;57.17;102095.81;693743;28;744;-87
2022/04/30 01:51:02;;;;;;;10.30;5.95;;;;;;;7.96;57.48;102093.31;693547;28;1005;-87
2022/04/30 01:51:22;;;;;;;12.30;6.17;;;;;;;7.94;57.05;102090.63;693583;28;1740;-87
2022/04/30 01:51:50;;;;;;;12.63;6.18;;;;;;;7.90;57.10;102080.84;693635;28;1276;-86
2022/04/30 01:52:13;;;;;;;10.25;6.20;;;;;;;7.89;57.22;102081.66;690728;28;1382;-87
2022/04/30 01:52:35;;;;;;;8.25;5.55;;;;;;;7.98;57.02;102098.63;690821;28;1189;-87
2022/04/30 01:52:56;;;;;;;6.10;5.10;;;;;;;7.94;57.00;102089.75;690151;28;1227;-87
2022/04/30 01:53:19;;;;;;;6.10;4.93;;;;;;;7.87;56.85;102078.06;693729;28;767;-87
2022/04/30 01:53:41;;;;;;;7.30;5.20;;;;;;;7.98;57.06;102096.91;693660;28;710;-87
2022/04/30 01:54:01;;;;;;;7.32;5.50;;;;;;;7.97;57.30;102099.44;689120;28;1560;-87
2022/04/30 01:54:22;;;;;;;7.63;5.63;;;;;;;7.89;57.29;102092.06;693404;28;1709;-87
2022/04/30 01:54:43;;;;;;;7.15;5.80;;;;;;;7.96;57.37;102101.13;693746;28;839;-87
2022/04/30 01:55:04;;;;;;;7.32;5.63;;;;;;;7.83;57.43;102078.69;689008;28;1544;-86